CheckWX is a tool to help pilots better visualize weather data.  It is not intended as a substitute for an official pre-flight weather briefing.

21:38:06 UTC

PASI TAF
Sitka Rocky Gutierrez Airport
Sitka, Alaska, USA
PASI 201727Z 2018/2118 11012KT P6SM FEW100 SCT200 FM202300 11012KT P6SM BKN070

Mar-20@
18:00 UTC

Mar-20 @ 18:00 UTC

Mar-20@
23:00 UTC

Mar-20 @ 23:00 UTC

PASI 201727Z 2018/2118 11012KT P6SM FEW100 SCT200
Wind
  • 110° at 12 KTS
Cloud Levels
  • Few at 10,000' AGL
  • Scattered at 20,000' AGL

Mar-20@
23:00 UTC

Mar-20 @ 23:00 UTC

Mar-21@
18:00 UTC

Mar-21 @ 18:00 UTC

FM202300 11012KT P6SM BKN070

From

From Standard forecast or significant change

Wind
  • 110° at 12 KTS
Cloud Levels
  • Broken at 7,000' AGL